createdAt,value
2023-03-26T00:00:16.988Z,7.70
2023-03-26T00:03:20.606Z,7.69
2023-03-26T00:06:25.818Z,7.70
2023-03-26T00:09:29.881Z,7.72
2023-03-26T00:12:31.731Z,7.67
2023-03-26T00:15:42.970Z,7.64
2023-03-26T00:18:49.023Z,7.59
2023-03-26T00:21:52.570Z,7.60
2023-03-26T00:24:57.018Z,7.61
2023-03-26T00:27:59.317Z,7.58
2023-03-26T00:31:08.017Z,7.56
2023-03-26T00:34:10.553Z,7.53
2023-03-26T00:37:14.338Z,7.51
2023-03-26T00:40:16.276Z,7.48
2023-03-26T00:43:19.693Z,7.52
2023-03-26T00:46:22.281Z,7.52
2023-03-26T00:49:26.814Z,7.51
2023-03-26T00:52:28.859Z,7.51
2023-03-26T00:55:34.562Z,7.47
2023-03-26T00:58:37.212Z,7.43
2023-03-26T01:01:43.559Z,7.42
2023-03-26T01:04:48.507Z,7.45
2023-03-26T01:07:51.726Z,7.45
2023-03-26T01:11:03.109Z,7.44
2023-03-26T01:14:11.747Z,7.46
2023-03-26T01:17:14.143Z,7.48
2023-03-26T01:20:26.782Z,7.48
2023-03-26T01:23:37.482Z,7.46
2023-03-26T01:27:04.909Z,7.51
2023-03-26T01:30:25.057Z,7.52
2023-03-26T01:33:34.029Z,7.52
2023-03-26T01:36:45.823Z,7.49
2023-03-26T01:40:38.815Z,7.50
2023-03-26T01:43:52.667Z,7.54
2023-03-26T01:46:55.650Z,7.52
2023-03-26T01:49:57.589Z,7.55
2023-03-26T01:52:59.897Z,7.57
2023-03-26T01:56:21.570Z,7.60
2023-03-26T02:00:01.765Z,7.62
2023-03-26T02:03:30.492Z,7.57
2023-03-26T02:06:51.819Z,7.61
2023-03-26T02:10:00.748Z,7.58
2023-03-26T02:13:03.272Z,7.61
2023-03-26T02:16:08.895Z,7.62
2023-03-26T02:19:17.481Z,7.62
2023-03-26T02:22:19.368Z,7.60
2023-03-26T02:25:22.042Z,7.59
2023-03-26T02:28:27.385Z,7.62
2023-03-26T02:31:32.050Z,7.66
2023-03-26T02:34:34.440Z,7.65
2023-03-26T02:37:39.411Z,7.63
2023-03-26T02:40:48.589Z,7.66
2023-03-26T02:43:50.605Z,7.66
2023-03-26T02:46:55.945Z,7.69
2023-03-26T02:50:16.513Z,7.74
2023-03-26T02:53:40.646Z,7.72
2023-03-26T02:57:09.937Z,7.76
2023-03-26T03:00:15.180Z,7.71
2023-03-26T03:03:24.323Z,7.77
2023-03-26T03:06:40.672Z,7.75
2023-03-26T03:09:42.873Z,7.80
2023-03-26T03:13:05.926Z,7.78
2023-03-26T03:16:08.927Z,7.83
2023-03-26T03:19:12.978Z,7.81
2023-03-26T03:22:15.612Z,7.79
2023-03-26T03:25:18.376Z,7.77
2023-03-26T03:28:23.563Z,7.81
2023-03-26T03:31:27.295Z,7.80
2023-03-26T03:34:38.691Z,7.81
2023-03-26T03:37:41.457Z,7.86
2023-03-26T03:40:44.347Z,7.82
2023-03-26T03:43:46.426Z,7.89
2023-03-26T03:46:55.603Z,7.86
2023-03-26T03:50:00.153Z,7.95
2023-03-26T03:53:06.545Z,7.95
2023-03-26T03:56:10.599Z,7.93
2023-03-26T03:59:50.926Z,7.97
2023-03-26T04:02:55.901Z,7.95
2023-03-26T04:06:01.806Z,7.95
2023-03-26T04:09:04.121Z,7.99
2023-03-26T04:12:06.518Z,8.01
2023-03-26T04:15:16.907Z,8.03
2023-03-26T04:18:22.357Z,7.99
2023-03-26T04:21:26.374Z,7.94
2023-03-26T04:24:38.424Z,7.96
2023-03-26T04:28:09.316Z,7.90
2023-03-26T04:31:31.926Z,7.83
2023-03-26T04:34:36.407Z,7.85
2023-03-26T04:37:48.220Z,7.90
2023-03-26T04:40:57.167Z,7.91
2023-03-26T04:44:37.374Z,7.90
2023-03-26T04:47:46.565Z,7.94
2023-03-26T04:50:49.748Z,7.92
2023-03-26T04:54:01.154Z,7.91
2023-03-26T04:57:25.609Z,7.98
2023-03-26T05:00:47.788Z,7.99
2023-03-26T05:03:50.146Z,7.98
2023-03-26T05:06:56.878Z,8.03
2023-03-26T05:10:24.907Z,8.10
2023-03-26T05:13:35.677Z,8.04
2023-03-26T05:16:42.901Z,7.98
2023-03-26T05:19:46.778Z,7.98
2023-03-26T05:22:50.792Z,8.05
2023-03-26T05:26:07.792Z,8.05
2023-03-26T05:29:10.721Z,8.09
2023-03-26T05:32:18.688Z,8.03
2023-03-26T05:35:22.057Z,8.01
2023-03-26T05:38:29.106Z,7.97
2023-03-26T05:41:39.117Z,8.02
2023-03-26T05:44:41.314Z,8.10
2023-03-26T05:47:54.340Z,8.07
2023-03-26T05:50:59.159Z,8.07
2023-03-26T05:54:06.373Z,8.07
2023-03-26T05:57:29.820Z,8.03
2023-03-26T06:00:58.518Z,8.05
2023-03-26T06:04:10.695Z,8.06
2023-03-26T06:07:16.916Z,8.12
2023-03-26T06:10:33.400Z,8.19
2023-03-26T06:13:35.391Z,8.17
2023-03-26T06:16:37.840Z,8.08
2023-03-26T06:19:55.454Z,8.11
2023-03-26T06:23:06.194Z,8.18
2023-03-26T06:26:26.950Z,8.10
2023-03-26T06:30:01.172Z,8.10
2023-03-26T06:33:28.890Z,8.05
2023-03-26T06:36:31.196Z,8.05
2023-03-26T06:39:39.059Z,8.11
2023-03-26T06:43:07.957Z,8.16
2023-03-26T06:46:41.613Z,8.12
2023-03-26T06:50:04.540Z,8.15
2023-03-26T06:53:13.992Z,8.22
2023-03-26T06:56:37.174Z,8.26
2023-03-26T06:59:55.364Z,8.21
2023-03-26T07:03:17.373Z,8.29
2023-03-26T07:06:42.119Z,8.48
2023-03-26T07:10:02.873Z,8.45
2023-03-26T07:13:10.827Z,8.50
2023-03-26T07:16:31.218Z,8.49
2023-03-26T07:19:55.196Z,8.56
2023-03-26T07:23:02.218Z,8.71
2023-03-26T07:26:39.507Z,8.78
2023-03-26T07:30:05.957Z,8.77
2023-03-26T07:33:27.150Z,8.76
2023-03-26T07:37:03.721Z,8.75
2023-03-26T07:40:34.587Z,8.84
2023-03-26T07:44:21.250Z,8.77
2023-03-26T07:47:34.650Z,8.67
2023-03-26T07:50:50.755Z,8.54
2023-03-26T07:54:06.780Z,8.61
2023-03-26T07:57:48.423Z,8.58
2023-03-26T08:01:28.127Z,8.53
2023-03-26T08:04:57.083Z,8.54
2023-03-26T08:09:05.643Z,8.50
2023-03-26T08:12:48.660Z,8.54
2023-03-26T08:16:01.292Z,8.47
2023-03-26T08:19:28.002Z,8.48
2023-03-26T08:22:38.361Z,8.57
2023-03-26T08:26:05.746Z,8.48
2023-03-26T08:29:23.181Z,8.45
2023-03-26T08:32:27.103Z,8.49
2023-03-26T08:35:29.201Z,8.59
2023-03-26T08:38:31.105Z,8.73
2023-03-26T08:41:32.933Z,8.88
2023-03-26T08:44:53.436Z,9.02
2023-03-26T08:48:19.956Z,9.07
2023-03-26T08:51:47.341Z,8.99
2023-03-26T08:55:19.483Z,8.91
2023-03-26T08:58:51.721Z,8.77
2023-03-26T09:02:56.412Z,8.78
2023-03-26T09:06:32.376Z,8.84
2023-03-26T09:09:50.792Z,8.86
2023-03-26T09:13:34.074Z,8.88
2023-03-26T09:16:58.257Z,8.97
2023-03-26T09:20:21.975Z,8.95
2023-03-26T09:23:38.770Z,8.92
2023-03-26T09:26:55.145Z,8.92
2023-03-26T09:30:30.140Z,9.02
2023-03-26T09:33:52.415Z,9.02
2023-03-26T09:37:28.619Z,9.11
2023-03-26T09:40:45.238Z,9.09
2023-03-26T09:43:55.157Z,9.16
2023-03-26T09:47:09.139Z,9.16
2023-03-26T09:50:14.899Z,9.17
2023-03-26T09:53:45.922Z,9.05
2023-03-26T09:57:03.308Z,9.11
2023-03-26T10:00:29.560Z,9.06
2023-03-26T10:03:38.581Z,9.01
2023-03-26T10:07:06.962Z,9.04
2023-03-26T10:11:03.082Z,8.97
2023-03-26T10:14:32.632Z,9.00
2023-03-26T10:17:46.584Z,9.11
2023-03-26T10:21:12.602Z,9.13
2023-03-26T10:24:57.248Z,9.11
2023-03-26T10:28:21.423Z,9.05
2023-03-26T10:31:42.818Z,9.10
2023-03-26T10:35:08.929Z,9.06
2023-03-26T10:38:32.242Z,9.10
2023-03-26T10:41:41.402Z,9.11
2023-03-26T10:45:05.205Z,9.14
2023-03-26T10:48:27.898Z,9.12
2023-03-26T10:51:44.581Z,9.07
2023-03-26T10:55:12.073Z,9.15
2023-03-26T10:58:49.768Z,9.23
2023-03-26T11:02:37.649Z,9.27
2023-03-26T11:05:58.237Z,9.25
2023-03-26T11:09:12.422Z,9.27
2023-03-26T11:12:32.013Z,9.28
2023-03-26T11:16:12.990Z,9.32
2023-03-26T11:19:29.121Z,9.41
2023-03-26T11:22:52.210Z,9.40
2023-03-26T11:25:57.202Z,9.49
2023-03-26T11:29:39.074Z,9.57
2023-03-26T11:32:52.010Z,9.60
2023-03-26T11:36:01.613Z,9.60
2023-03-26T11:39:10.784Z,9.53
2023-03-26T11:42:17.454Z,9.43
2023-03-26T11:45:24.294Z,9.50
2023-03-26T11:48:37.157Z,9.52
2023-03-26T11:51:43.214Z,9.61
2023-03-26T11:54:48.535Z,9.58
2023-03-26T11:57:56.053Z,9.66
2023-03-26T12:00:59.151Z,9.57
2023-03-26T12:04:13.713Z,9.65
2023-03-26T12:07:17.324Z,9.65
2023-03-26T12:10:39.325Z,9.69
2023-03-26T12:13:52.901Z,9.68
2023-03-26T12:17:00.488Z,9.71
2023-03-26T12:20:29.957Z,9.68
2023-03-26T12:23:56.982Z,9.65
2023-03-26T12:27:02.813Z,9.57
2023-03-26T12:30:26.794Z,9.58
2023-03-26T12:33:34.268Z,9.65
2023-03-26T12:36:39.145Z,9.61
2023-03-26T12:40:12.008Z,9.68
2023-03-26T12:44:51.384Z,9.74
2023-03-26T12:47:58.180Z,9.74
2023-03-26T12:50:14.778Z,9.73
2023-03-26T12:53:48.398Z,9.62
2023-03-26T12:57:24.031Z,9.56
2023-03-26T13:00:48.940Z,9.55
2023-03-26T13:04:03.826Z,9.65
2023-03-26T13:07:40.610Z,9.69
2023-03-26T13:11:10.509Z,9.77
2023-03-26T13:14:37.019Z,9.78
2023-03-26T13:18:07.635Z,9.78
2023-03-26T13:21:31.499Z,9.77
2023-03-26T13:25:11.058Z,9.77
2023-03-26T13:28:41.011Z,9.75
2023-03-26T13:31:52.085Z,9.67
2023-03-26T13:35:09.103Z,9.60
2023-03-26T13:38:33.863Z,9.53
2023-03-26T13:41:59.491Z,9.44
2023-03-26T13:45:10.137Z,9.33
2023-03-26T13:48:21.459Z,9.35
2023-03-26T13:51:45.384Z,9.03
2023-03-26T13:55:18.642Z,9.30
2023-03-26T13:58:34.653Z,9.28
2023-03-26T14:01:45.409Z,9.28
2023-03-26T14:04:52.608Z,9.31
2023-03-26T14:08:10.868Z,9.26
2023-03-26T14:11:50.456Z,9.29
2023-03-26T14:15:14.890Z,9.24
2023-03-26T14:18:35.310Z,9.21
2023-03-26T14:22:14.249Z,9.15
2023-03-26T14:25:34.922Z,9.16
2023-03-26T14:28:51.878Z,9.06
2023-03-26T14:32:15.687Z,9.03
2023-03-26T14:35:35.298Z,9.00
2023-03-26T14:39:07.976Z,8.99
2023-03-26T14:42:21.318Z,8.96
2023-03-26T14:46:18.507Z,8.92
2023-03-26T14:49:23.146Z,8.96
2023-03-26T14:52:47.984Z,8.89
2023-03-26T14:56:12.863Z,8.86
2023-03-26T14:59:34.267Z,8.91
2023-03-26T15:02:57.624Z,8.91
2023-03-26T15:06:39.020Z,8.89
2023-03-26T15:10:24.005Z,8.82
2023-03-26T15:13:48.735Z,8.80
2023-03-26T15:17:02.812Z,8.79
2023-03-26T15:20:54.578Z,8.85
2023-03-26T15:24:27.879Z,8.86
2023-03-26T15:28:11.655Z,8.85
2023-03-26T15:31:25.268Z,8.86
2023-03-26T15:34:33.647Z,8.89
2023-03-26T15:38:09.446Z,8.88
2023-03-26T15:41:17.709Z,8.86
2023-03-26T15:44:50.908Z,8.86
2023-03-26T15:48:19.386Z,8.86
2023-03-26T15:51:46.819Z,8.83
2023-03-26T15:55:03.196Z,8.79
2023-03-26T15:58:18.441Z,8.80
2023-03-26T16:01:38.218Z,8.77
2023-03-26T16:04:50.421Z,8.75
2023-03-26T16:07:58.862Z,8.76
2023-03-26T16:11:07.792Z,8.74
2023-03-26T16:14:27.162Z,8.73
2023-03-26T16:18:09.300Z,8.71
2023-03-26T16:21:32.752Z,8.71
2023-03-26T16:25:27.250Z,8.70
2023-03-26T16:28:33.961Z,8.70
2023-03-26T16:31:37.779Z,8.69
2023-03-26T16:35:10.226Z,8.64
2023-03-26T16:38:26.844Z,8.64
2023-03-26T16:41:52.301Z,8.62
2023-03-26T16:45:12.473Z,8.59
2023-03-26T16:48:29.311Z,8.57
2023-03-26T16:51:46.364Z,8.52
2023-03-26T16:55:44.778Z,8.52
2023-03-26T16:59:06.940Z,8.52
2023-03-26T17:02:31.861Z,8.51
2023-03-26T17:05:37.755Z,8.50
2023-03-26T17:08:53.448Z,8.50
2023-03-26T17:12:18.751Z,8.45
2023-03-26T17:15:43.752Z,8.46
2023-03-26T17:19:04.429Z,8.45
2023-03-26T17:22:48.528Z,8.43
2023-03-26T17:26:17.726Z,8.37
2023-03-26T17:29:51.176Z,8.35
2023-03-26T17:32:56.061Z,8.35
2023-03-26T17:36:15.192Z,8.37
2023-03-26T17:40:01.703Z,8.36
2023-03-26T17:43:14.212Z,8.35
2023-03-26T17:46:24.998Z,8.32
2023-03-26T17:49:33.164Z,8.34
2023-03-26T17:52:44.432Z,8.32
2023-03-26T17:55:50.125Z,8.28
2023-03-26T17:58:58.763Z,8.27
2023-03-26T18:02:24.730Z,8.27
2023-03-26T18:05:29.879Z,8.25
2023-03-26T18:09:06.181Z,8.29
2023-03-26T18:12:24.916Z,8.29
2023-03-26T18:15:45.519Z,8.28
2023-03-26T18:19:03.439Z,8.27
2023-03-26T18:22:07.453Z,8.25
2023-03-26T18:25:36.330Z,8.22
2023-03-26T18:28:43.692Z,8.22
2023-03-26T18:31:48.451Z,8.24
2023-03-26T18:35:17.101Z,8.23
2023-03-26T18:38:35.747Z,8.23
2023-03-26T18:41:42.341Z,8.24
2023-03-26T18:44:45.537Z,8.21
2023-03-26T18:47:50.224Z,8.21
2023-03-26T18:50:59.860Z,8.23
2023-03-26T18:54:18.477Z,8.23
2023-03-26T18:57:29.260Z,8.17
2023-03-26T19:00:34.548Z,8.15
2023-03-26T19:03:40.428Z,8.17
2023-03-26T19:06:46.224Z,8.13
2023-03-26T19:09:54.826Z,8.12
2023-03-26T19:13:01.797Z,8.10
2023-03-26T19:16:19.419Z,8.12
2023-03-26T19:19:29.509Z,8.15
2023-03-26T19:22:31.514Z,8.17
2023-03-26T19:25:55.018Z,8.17
2023-03-26T19:29:01.734Z,8.16
2023-03-26T19:32:14.262Z,8.17
2023-03-26T19:35:23.631Z,8.18
2023-03-26T19:38:28.225Z,8.18
2023-03-26T19:41:51.543Z,8.18
2023-03-26T19:44:54.690Z,8.15
2023-03-26T19:48:11.748Z,8.20
2023-03-26T19:51:37.002Z,8.23
2023-03-26T19:55:01.480Z,8.25
2023-03-26T19:58:07.295Z,8.24
2023-03-26T20:01:19.158Z,8.19
2023-03-26T20:04:21.391Z,8.22
2023-03-26T20:07:35.800Z,8.22
2023-03-26T20:10:38.281Z,8.22
2023-03-26T20:13:45.277Z,8.24
2023-03-26T20:16:47.164Z,8.25
2023-03-26T20:19:52.578Z,8.25
2023-03-26T20:22:54.928Z,8.24
2023-03-26T20:25:59.725Z,8.23
2023-03-26T20:29:04.695Z,8.21
2023-03-26T20:32:27.401Z,8.21
2023-03-26T20:35:35.644Z,8.18
2023-03-26T20:38:39.981Z,8.19
2023-03-26T20:41:46.347Z,8.21
2023-03-26T20:44:48.205Z,8.19
2023-03-26T20:47:50.926Z,8.19
2023-03-26T20:50:53.010Z,8.21
2023-03-26T20:53:55.319Z,8.18
2023-03-26T20:56:58.293Z,8.20
2023-03-26T21:00:00.326Z,8.18
2023-03-26T21:03:02.218Z,8.22
2023-03-26T21:06:06.563Z,8.21
2023-03-26T21:09:23.587Z,8.23
2023-03-26T21:12:33.529Z,8.20
2023-03-26T21:15:35.928Z,8.20
2023-03-26T21:18:40.547Z,8.20
2023-03-26T21:22:30.725Z,8.22
2023-03-26T21:26:01.555Z,8.20
2023-03-26T21:29:03.455Z,8.20
2023-03-26T21:32:07.826Z,8.24
2023-03-26T21:35:10.826Z,8.26
2023-03-26T21:38:19.756Z,8.26
2023-03-26T21:41:24.617Z,8.27
2023-03-26T21:44:27.288Z,8.25
2023-03-26T21:47:29.301Z,8.23
2023-03-26T21:50:36.975Z,8.24
2023-03-26T21:53:39.107Z,8.23
2023-03-26T21:56:50.200Z,8.26
2023-03-26T22:00:13.466Z,8.27
2023-03-26T22:03:34.853Z,8.24
2023-03-26T22:06:42.880Z,8.24
2023-03-26T22:09:48.458Z,8.23
2023-03-26T22:12:51.337Z,8.24
2023-03-26T22:15:53.299Z,8.20
2023-03-26T22:18:57.567Z,8.22
2023-03-26T22:22:03.012Z,8.24
2023-03-26T22:25:10.420Z,8.22
2023-03-26T22:28:12.469Z,8.22
2023-03-26T22:31:14.747Z,8.23
2023-03-26T22:34:24.642Z,8.23
2023-03-26T22:37:27.411Z,8.19
2023-03-26T22:40:33.893Z,8.20
2023-03-26T22:43:39.255Z,8.21
2023-03-26T22:46:41.282Z,8.22
2023-03-26T22:49:45.371Z,8.22
2023-03-26T22:52:48.337Z,8.21
2023-03-26T22:55:51.395Z,8.22
2023-03-26T22:58:53.298Z,8.24
2023-03-26T23:01:58.297Z,8.25
2023-03-26T23:05:03.206Z,8.24
2023-03-26T23:08:05.091Z,8.20
2023-03-26T23:11:20.579Z,8.25
2023-03-26T23:14:32.492Z,8.25
2023-03-26T23:17:35.688Z,8.25
2023-03-26T23:20:40.022Z,8.20
2023-03-26T23:23:42.300Z,8.18
2023-03-26T23:26:50.622Z,8.15
2023-03-26T23:29:53.488Z,8.15
2023-03-26T23:33:03.130Z,8.16
2023-03-26T23:36:11.403Z,8.12
2023-03-26T23:39:13.281Z,8.14
2023-03-26T23:42:16.224Z,8.12
2023-03-26T23:45:30.923Z,8.10
2023-03-26T23:48:32.923Z,8.09
2023-03-26T23:51:37.593Z,8.10
2023-03-26T23:54:42.525Z,8.12
2023-03-26T23:57:44.380Z,8.13
